sensor_id;sensor_type;location;lat;lon;timestamp;P1;P2;P0
67892;PMS7003;54688;52.376;16.744;2023-04-24T00:01:28;45;36;
67892;PMS7003;54688;52.376;16.744;2023-04-24T00:04:30;52;40;
67892;PMS7003;54688;52.376;16.744;2023-04-24T00:07:33;54;43;
67892;PMS7003;54688;52.376;16.744;2023-04-24T00:10:35;50;40;
67892;PMS7003;54688;52.376;16.744;2023-04-24T00:13:37;53;42;
67892;PMS7003;54688;52.376;16.744;2023-04-24T00:16:39;56;43;
67892;PMS7003;54688;52.376;16.744;2023-04-24T00:19:41;51;41;
67892;PMS7003;54688;52.376;16.744;2023-04-24T00:22:43;46;39;
67892;PMS7003;54688;52.376;16.744;2023-04-24T00:25:44;55;42;
67892;PMS7003;54688;52.376;16.744;2023-04-24T00:28:47;49;40;
67892;PMS7003;54688;52.376;16.744;2023-04-24T00:31:49;46;36;
67892;PMS7003;54688;52.376;16.744;2023-04-24T00:34:51;52;41;
67892;PMS7003;54688;52.376;16.744;2023-04-24T00:37:53;53;42;
67892;PMS7003;54688;52.376;16.744;2023-04-24T00:40:56;52;40;
67892;PMS7003;54688;52.376;16.744;2023-04-24T00:46:58;52;39;
67892;PMS7003;54688;52.376;16.744;2023-04-24T00:50:01;55;43;
67892;PMS7003;54688;52.376;16.744;2023-04-24T00:53:03;46;38;
67892;PMS7003;54688;52.376;16.744;2023-04-24T00:56:05;57;40;
67892;PMS7003;54688;52.376;16.744;2023-04-24T00:59:08;53;40;
67892;PMS7003;54688;52.376;16.744;2023-04-24T01:02:11;50;38;
67892;PMS7003;54688;52.376;16.744;2023-04-24T01:05:15;45;35;
67892;PMS7003;54688;52.376;16.744;2023-04-24T01:08:17;49;36;
67892;PMS7003;54688;52.376;16.744;2023-04-24T01:14:18;49;37;
67892;PMS7003;54688;52.376;16.744;2023-04-24T01:17:22;45;36;
67892;PMS7003;54688;52.376;16.744;2023-04-24T01:20:24;44;35;
67892;PMS7003;54688;52.376;16.744;2023-04-24T01:23:27;47;35;
67892;PMS7003;54688;52.376;16.744;2023-04-24T01:26:29;44;35;
67892;PMS7003;54688;52.376;16.744;2023-04-24T01:29:32;31;27;
67892;PMS7003;54688;52.376;16.744;2023-04-24T01:32:36;37;30;
67892;PMS7003;54688;52.376;16.744;2023-04-24T01:35:38;43;35;
67892;PMS7003;54688;52.376;16.744;2023-04-24T01:38:41;39;32;
67892;PMS7003;54688;52.376;16.744;2023-04-24T01:41:42;41;31;
67892;PMS7003;54688;52.376;16.744;2023-04-24T01:44:44;38;29;
67892;PMS7003;54688;52.376;16.744;2023-04-24T01:47:48;43;35;
67892;PMS7003;54688;52.376;16.744;2023-04-24T01:50:51;35;30;
67892;PMS7003;54688;52.376;16.744;2023-04-24T01:53:54;27;26;
67892;PMS7003;54688;52.376;16.744;2023-04-24T01:56:57;33;27;
67892;PMS7003;54688;52.376;16.744;2023-04-24T01:59:59;39;30;
67892;PMS7003;54688;52.376;16.744;2023-04-24T02:03:02;28;27;
67892;PMS7003;54688;52.376;16.744;2023-04-24T02:06:05;34;29;
67892;PMS7003;54688;52.376;16.744;2023-04-24T02:09:07;28;24;
67892;PMS7003;54688;52.376;16.744;2023-04-24T02:12:10;32;29;
67892;PMS7003;54688;52.376;16.744;2023-04-24T02:15:13;30;28;
67892;PMS7003;54688;52.376;16.744;2023-04-24T02:18:16;31;27;
67892;PMS7003;54688;52.376;16.744;2023-04-24T02:21:18;28;23;
67892;PMS7003;54688;52.376;16.744;2023-04-24T02:24:20;27;25;
67892;PMS7003;54688;52.376;16.744;2023-04-24T02:27:22;28;27;
67892;PMS7003;54688;52.376;16.744;2023-04-24T02:30:24;32;27;
67892;PMS7003;54688;52.376;16.744;2023-04-24T02:33:25;23;22;
67892;PMS7003;54688;52.376;16.744;2023-04-24T02:36:27;28;24;
67892;PMS7003;54688;52.376;16.744;2023-04-24T02:39:30;25;24;
67892;PMS7003;54688;52.376;16.744;2023-04-24T02:42:31;28;25;
67892;PMS7003;54688;52.376;16.744;2023-04-24T02:45:34;25;24;
67892;PMS7003;54688;52.376;16.744;2023-04-24T02:48:36;27;23;
67892;PMS7003;54688;52.376;16.744;2023-04-24T02:51:38;33;26;
67892;PMS7003;54688;52.376;16.744;2023-04-24T02:54:40;30;29;
67892;PMS7003;54688;52.376;16.744;2023-04-24T02:57:41;25;23;
67892;PMS7003;54688;52.376;16.744;2023-04-24T03:00:43;20;19;
67892;PMS7003;54688;52.376;16.744;2023-04-24T03:03:46;24;23;
67892;PMS7003;54688;52.376;16.744;2023-04-24T03:06:47;25;22;
67892;PMS7003;54688;52.376;16.744;2023-04-24T03:09:49;31;25;
67892;PMS7003;54688;52.376;16.744;2023-04-24T03:12:51;35;27;
67892;PMS7003;54688;52.376;16.744;2023-04-24T03:15:53;42;33;
67892;PMS7003;54688;52.376;16.744;2023-04-24T03:18:55;48;37;
67892;PMS7003;54688;52.376;16.744;2023-04-24T03:21:57;42;36;
67892;PMS7003;54688;52.376;16.744;2023-04-24T03:25:00;44;34;
67892;PMS7003;54688;52.376;16.744;2023-04-24T03:28:02;33;27;
67892;PMS7003;54688;52.376;16.744;2023-04-24T03:31:04;32;26;
67892;PMS7003;54688;52.376;16.744;2023-04-24T03:34:06;28;23;
67892;PMS7003;54688;52.376;16.744;2023-04-24T03:37:08;26;23;
67892;PMS7003;54688;52.376;16.744;2023-04-24T03:40:10;24;22;
67892;PMS7003;54688;52.376;16.744;2023-04-24T03:43:12;22;20;
67892;PMS7003;54688;52.376;16.744;2023-04-24T03:46:14;36;27;
67892;PMS7003;54688;52.376;16.744;2023-04-24T03:49:16;32;27;
67892;PMS7003;54688;52.376;16.744;2023-04-24T03:52:18;35;31;
67892;PMS7003;54688;52.376;16.744;2023-04-24T03:55:20;35;32;
67892;PMS7003;54688;52.376;16.744;2023-04-24T03:58:22;46;34;
67892;PMS7003;54688;52.376;16.744;2023-04-24T04:01:24;38;30;
67892;PMS7003;54688;52.376;16.744;2023-04-24T04:04:26;28;27;
67892;PMS7003;54688;52.376;16.744;2023-04-24T04:07:28;37;32;
67892;PMS7003;54688;52.376;16.744;2023-04-24T04:10:30;36;32;
67892;PMS7003;54688;52.376;16.744;2023-04-24T04:13:32;39;31;
67892;PMS7003;54688;52.376;16.744;2023-04-24T04:16:34;37;31;
67892;PMS7003;54688;52.376;16.744;2023-04-24T04:19:36;31;27;
67892;PMS7003;54688;52.376;16.744;2023-04-24T04:22:39;29;28;
67892;PMS7003;54688;52.376;16.744;2023-04-24T04:25:40;41;33;
67892;PMS7003;54688;52.376;16.744;2023-04-24T04:28:42;40;32;
67892;PMS7003;54688;52.376;16.744;2023-04-24T04:31:44;49;35;
67892;PMS7003;54688;52.376;16.744;2023-04-24T04:34:46;40;32;
67892;PMS7003;54688;52.376;16.744;2023-04-24T04:37:49;39;30;
67892;PMS7003;54688;52.376;16.744;2023-04-24T04:40:51;42;33;
67892;PMS7003;54688;52.376;16.744;2023-04-24T04:43:53;35;29;
67892;PMS7003;54688;52.376;16.744;2023-04-24T04:46:55;31;27;
67892;PMS7003;54688;52.376;16.744;2023-04-24T04:49:57;33;29;
67892;PMS7003;54688;52.376;16.744;2023-04-24T04:52:59;37;31;
67892;PMS7003;54688;52.376;16.744;2023-04-24T04:56:01;36;33;
67892;PMS7003;54688;52.376;16.744;2023-04-24T04:59:03;35;29;
67892;PMS7003;54688;52.376;16.744;2023-04-24T05:02:04;42;32;
67892;PMS7003;54688;52.376;16.744;2023-04-24T05:05:07;29;27;
67892;PMS7003;54688;52.376;16.744;2023-04-24T05:08:09;33;28;
67892;PMS7003;54688;52.376;16.744;2023-04-24T05:11:12;25;25;
67892;PMS7003;54688;52.376;16.744;2023-04-24T05:14:14;25;22;
67892;PMS7003;54688;52.376;16.744;2023-04-24T05:17:17;33;28;
67892;PMS7003;54688;52.376;16.744;2023-04-24T05:20:18;43;33;
67892;PMS7003;54688;52.376;16.744;2023-04-24T05:23:20;26;22;
67892;PMS7003;54688;52.376;16.744;2023-04-24T05:26:22;34;32;
67892;PMS7003;54688;52.376;16.744;2023-04-24T05:29:24;30;27;
67892;PMS7003;54688;52.376;16.744;2023-04-24T05:32:26;38;30;
67892;PMS7003;54688;52.376;16.744;2023-04-24T05:35:29;30;27;
67892;PMS7003;54688;52.376;16.744;2023-04-24T05:38:30;24;23;
67892;PMS7003;54688;52.376;16.744;2023-04-24T05:41:32;27;24;
67892;PMS7003;54688;52.376;16.744;2023-04-24T05:44:34;29;23;
67892;PMS7003;54688;52.376;16.744;2023-04-24T05:47:36;21;20;
67892;PMS7003;54688;52.376;16.744;2023-04-24T05:50:38;29;27;
67892;PMS7003;54688;52.376;16.744;2023-04-24T05:53:40;28;23;
67892;PMS7003;54688;52.376;16.744;2023-04-24T05:56:42;25;21;
67892;PMS7003;54688;52.376;16.744;2023-04-24T05:59:44;21;21;
67892;PMS7003;54688;52.376;16.744;2023-04-24T06:02:47;28;24;
67892;PMS7003;54688;52.376;16.744;2023-04-24T06:05:49;25;25;
67892;PMS7003;54688;52.376;16.744;2023-04-24T06:08:52;24;19;
67892;PMS7003;54688;52.376;16.744;2023-04-24T06:11:54;21;19;
67892;PMS7003;54688;52.376;16.744;2023-04-24T06:14:56;29;24;
67892;PMS7003;54688;52.376;16.744;2023-04-24T06:18:03;27;24;
67892;PMS7003;54688;52.376;16.744;2023-04-24T06:21:05;28;26;
67892;PMS7003;54688;52.376;16.744;2023-04-24T06:24:07;25;21;
67892;PMS7003;54688;52.376;16.744;2023-04-24T06:27:09;25;24;
67892;PMS7003;54688;52.376;16.744;2023-04-24T06:30:11;31;23;
67892;PMS7003;54688;52.376;16.744;2023-04-24T06:33:13;26;22;
67892;PMS7003;54688;52.376;16.744;2023-04-24T06:36:15;26;23;
67892;PMS7003;54688;52.376;16.744;2023-04-24T06:39:17;25;22;
67892;PMS7003;54688;52.376;16.744;2023-04-24T06:42:22;28;24;
67892;PMS7003;54688;52.376;16.744;2023-04-24T06:45:34;22;21;
67892;PMS7003;54688;52.376;16.744;2023-04-24T06:48:36;22;22;
67892;PMS7003;54688;52.376;16.744;2023-04-24T06:51:49;30;25;
67892;PMS7003;54688;52.376;16.744;2023-04-24T06:54:52;27;24;
67892;PMS7003;54688;52.376;16.744;2023-04-24T06:58:01;27;23;
67892;PMS7003;54688;52.376;16.744;2023-04-24T07:01:03;24;23;
67892;PMS7003;54688;52.376;16.744;2023-04-24T07:04:06;29;18;
67892;PMS7003;54688;52.376;16.744;2023-04-24T07:07:08;20;19;
67892;PMS7003;54688;52.376;16.744;2023-04-24T07:10:10;28;24;
67892;PMS7003;54688;52.376;16.744;2023-04-24T07:13:12;31;27;
67892;PMS7003;54688;52.376;16.744;2023-04-24T07:16:14;27;24;
67892;PMS7003;54688;52.376;16.744;2023-04-24T07:19:17;32;27;
67892;PMS7003;54688;52.376;16.744;2023-04-24T07:22:19;30;29;
67892;PMS7003;54688;52.376;16.744;2023-04-24T07:25:21;30;25;
67892;PMS7003;54688;52.376;16.744;2023-04-24T07:28:23;35;28;
67892;PMS7003;54688;52.376;16.744;2023-04-24T07:31:26;36;29;
67892;PMS7003;54688;52.376;16.744;2023-04-24T07:34:27;29;28;
67892;PMS7003;54688;52.376;16.744;2023-04-24T07:37:29;25;22;
67892;PMS7003;54688;52.376;16.744;2023-04-24T07:40:31;31;26;
67892;PMS7003;54688;52.376;16.744;2023-04-24T07:43:33;25;21;
67892;PMS7003;54688;52.376;16.744;2023-04-24T07:46:35;20;20;
67892;PMS7003;54688;52.376;16.744;2023-04-24T07:49:37;24;22;
67892;PMS7003;54688;52.376;16.744;2023-04-24T07:52:39;29;26;
67892;PMS7003;54688;52.376;16.744;2023-04-24T07:55:40;28;22;
67892;PMS7003;54688;52.376;16.744;2023-04-24T07:58:43;20;18;
67892;PMS7003;54688;52.376;16.744;2023-04-24T08:01:45;20;19;
67892;PMS7003;54688;52.376;16.744;2023-04-24T08:04:47;22;19;
67892;PMS7003;54688;52.376;16.744;2023-04-24T08:07:48;24;20;
67892;PMS7003;54688;52.376;16.744;2023-04-24T08:10:51;20;20;
67892;PMS7003;54688;52.376;16.744;2023-04-24T08:13:52;19;17;
67892;PMS7003;54688;52.376;16.744;2023-04-24T08:16:55;22;17;
67892;PMS7003;54688;52.376;16.744;2023-04-24T08:19:57;28;21;
67892;PMS7003;54688;52.376;16.744;2023-04-24T08:22:58;24;20;
67892;PMS7003;54688;52.376;16.744;2023-04-24T08:26:00;20;17;
67892;PMS7003;54688;52.376;16.744;2023-04-24T08:29:04;24;21;
67892;PMS7003;54688;52.376;16.744;2023-04-24T08:32:07;19;18;
67892;PMS7003;54688;52.376;16.744;2023-04-24T08:35:09;23;20;
67892;PMS7003;54688;52.376;16.744;2023-04-24T08:38:11;24;18;
67892;PMS7003;54688;52.376;16.744;2023-04-24T08:41:14;26;19;
67892;PMS7003;54688;52.376;16.744;2023-04-24T08:44:16;19;16;
67892;PMS7003;54688;52.376;16.744;2023-04-24T08:47:19;27;20;
67892;PMS7003;54688;52.376;16.744;2023-04-24T08:50:22;20;20;
67892;PMS7003;54688;52.376;16.744;2023-04-24T08:53:25;27;22;
67892;PMS7003;54688;52.376;16.744;2023-04-24T08:56:27;18;17;
67892;PMS7003;54688;52.376;16.744;2023-04-24T08:59:30;28;23;
67892;PMS7003;54688;52.376;16.744;2023-04-24T09:02:33;36;29;
67892;PMS7003;54688;52.376;16.744;2023-04-24T09:05:35;16;15;
67892;PMS7003;54688;52.376;16.744;2023-04-24T09:08:37;18;17;
67892;PMS7003;54688;52.376;16.744;2023-04-24T09:11:41;19;18;
67892;PMS7003;54688;52.376;16.744;2023-04-24T09:14:43;19;17;
67892;PMS7003;54688;52.376;16.744;2023-04-24T09:17:46;25;19;
67892;PMS7003;54688;52.376;16.744;2023-04-24T09:21:08;18;15;
67892;PMS7003;54688;52.376;16.744;2023-04-24T09:24:14;19;17;
67892;PMS7003;54688;52.376;16.744;2023-04-24T09:27:16;19;18;
67892;PMS7003;54688;52.376;16.744;2023-04-24T09:30:21;18;17;
67892;PMS7003;54688;52.376;16.744;2023-04-24T09:33:22;22;18;
67892;PMS7003;54688;52.376;16.744;2023-04-24T09:36:27;24;18;
67892;PMS7003;54688;52.376;16.744;2023-04-24T09:39:30;16;16;
67892;PMS7003;54688;52.376;16.744;2023-04-24T09:42:32;29;21;
67892;PMS7003;54688;52.376;16.744;2023-04-24T09:45:35;34;26;
67892;PMS7003;54688;52.376;16.744;2023-04-24T09:48:38;18;18;
67892;PMS7003;54688;52.376;16.744;2023-04-24T09:51:40;21;19;
67892;PMS7003;54688;52.376;16.744;2023-04-24T09:54:52;20;18;
67892;PMS7003;54688;52.376;16.744;2023-04-24T09:57:56;26;21;
67892;PMS7003;54688;52.376;16.744;2023-04-24T10:00:58;22;18;
67892;PMS7003;54688;52.376;16.744;2023-04-24T10:04:01;21;16;
67892;PMS7003;54688;52.376;16.744;2023-04-24T10:07:03;24;21;
67892;PMS7003;54688;52.376;16.744;2023-04-24T10:10:06;20;16;
67892;PMS7003;54688;52.376;16.744;2023-04-24T10:13:09;28;20;
67892;PMS7003;54688;52.376;16.744;2023-04-24T10:16:11;15;15;
67892;PMS7003;54688;52.376;16.744;2023-04-24T10:19:14;19;16;
67892;PMS7003;54688;52.376;16.744;2023-04-24T10:22:17;17;14;
67892;PMS7003;54688;52.376;16.744;2023-04-24T10:25:20;11;11;
67892;PMS7003;54688;52.376;16.744;2023-04-24T10:28:24;12;10;
67892;PMS7003;54688;52.376;16.744;2023-04-24T10:31:26;15;14;
67892;PMS7003;54688;52.376;16.744;2023-04-24T10:34:29;12;10;
67892;PMS7003;54688;52.376;16.744;2023-04-24T10:37:35;12;12;
67892;PMS7003;54688;52.376;16.744;2023-04-24T10:40:38;11;10;
67892;PMS7003;54688;52.376;16.744;2023-04-24T10:43:41;10;9;
67892;PMS7003;54688;52.376;16.744;2023-04-24T10:46:44;16;15;
67892;PMS7003;54688;52.376;16.744;2023-04-24T10:49:50;13;11;
67892;PMS7003;54688;52.376;16.744;2023-04-24T10:52:52;10;9;
67892;PMS7003;54688;52.376;16.744;2023-04-24T10:55:58;9;9;
67892;PMS7003;54688;52.376;16.744;2023-04-24T10:59:00;20;17;
67892;PMS7003;54688;52.376;16.744;2023-04-24T11:02:02;8;8;
67892;PMS7003;54688;52.376;16.744;2023-04-24T11:05:05;10;7;
67892;PMS7003;54688;52.376;16.744;2023-04-24T11:08:10;7;5;
67892;PMS7003;54688;52.376;16.744;2023-04-24T11:11:14;6;6;
67892;PMS7003;54688;52.376;16.744;2023-04-24T11:14:17;8;6;
67892;PMS7003;54688;52.376;16.744;2023-04-24T11:17:28;7;4;
67892;PMS7003;54688;52.376;16.744;2023-04-24T11:20:31;11;8;
67892;PMS7003;54688;52.376;16.744;2023-04-24T11:23:35;6;6;
67892;PMS7003;54688;52.376;16.744;2023-04-24T11:26:38;5;5;
67892;PMS7003;54688;52.376;16.744;2023-04-24T11:29:42;5;5;
67892;PMS7003;54688;52.376;16.744;2023-04-24T11:32:47;8;5;
67892;PMS7003;54688;52.376;16.744;2023-04-24T11:35:51;8;7;
67892;PMS7003;54688;52.376;16.744;2023-04-24T11:38:53;5;5;
67892;PMS7003;54688;52.376;16.744;2023-04-24T11:42:02;6;4;
67892;PMS7003;54688;52.376;16.744;2023-04-24T11:45:08;4;4;
67892;PMS7003;54688;52.376;16.744;2023-04-24T11:48:10;5;5;
67892;PMS7003;54688;52.376;16.744;2023-04-24T11:51:13;6;6;
67892;PMS7003;54688;52.376;16.744;2023-04-24T11:54:15;5;5;
67892;PMS7003;54688;52.376;16.744;2023-04-24T11:57:19;7;5;
67892;PMS7003;54688;52.376;16.744;2023-04-24T12:00:23;4;4;
67892;PMS7003;54688;52.376;16.744;2023-04-24T12:03:25;4;4;
67892;PMS7003;54688;52.376;16.744;2023-04-24T12:06:27;3;3;
67892;PMS7003;54688;52.376;16.744;2023-04-24T12:09:28;4;4;
67892;PMS7003;54688;52.376;16.744;2023-04-24T12:12:31;2;2;
67892;PMS7003;54688;52.376;16.744;2023-04-24T12:15:33;4;3;
67892;PMS7003;54688;52.376;16.744;2023-04-24T12:18:41;4;3;
67892;PMS7003;54688;52.376;16.744;2023-04-24T12:21:43;5;5;
67892;PMS7003;54688;52.376;16.744;2023-04-24T12:25:03;4;4;
67892;PMS7003;54688;52.376;16.744;2023-04-24T12:28:11;6;4;
67892;PMS7003;54688;52.376;16.744;2023-04-24T12:31:13;3;3;
67892;PMS7003;54688;52.376;16.744;2023-04-24T12:34:18;5;4;
67892;PMS7003;54688;52.376;16.744;2023-04-24T12:37:21;7;6;
67892;PMS7003;54688;52.376;16.744;2023-04-24T12:40:25;6;5;
67892;PMS7003;54688;52.376;16.744;2023-04-24T12:43:27;4;4;
67892;PMS7003;54688;52.376;16.744;2023-04-24T12:46:28;10;4;
67892;PMS7003;54688;52.376;16.744;2023-04-24T12:49:31;6;6;
67892;PMS7003;54688;52.376;16.744;2023-04-24T12:52:33;7;4;
67892;PMS7003;54688;52.376;16.744;2023-04-24T12:55:35;2;2;
67892;PMS7003;54688;52.376;16.744;2023-04-24T12:58:37;2;2;
67892;PMS7003;54688;52.376;16.744;2023-04-24T13:01:40;7;4;
67892;PMS7003;54688;52.376;16.744;2023-04-24T13:04:43;3;3;
67892;PMS7003;54688;52.376;16.744;2023-04-24T13:07:46;4;4;
67892;PMS7003;54688;52.376;16.744;2023-04-24T13:10:49;4;3;
67892;PMS7003;54688;52.376;16.744;2023-04-24T13:13:50;2;2;
67892;PMS7003;54688;52.376;16.744;2023-04-24T13:16:52;3;2;
67892;PMS7003;54688;52.376;16.744;2023-04-24T13:19:54;3;3;
67892;PMS7003;54688;52.376;16.744;2023-04-24T13:22:56;9;4;
67892;PMS7003;54688;52.376;16.744;2023-04-24T13:25:59;11;8;
67892;PMS7003;54688;52.376;16.744;2023-04-24T13:29:00;8;6;
67892;PMS7003;54688;52.376;16.744;2023-04-24T13:32:02;4;2;
67892;PMS7003;54688;52.376;16.744;2023-04-24T13:35:05;1;1;
67892;PMS7003;54688;52.376;16.744;2023-04-24T13:38:07;2;0;
67892;PMS7003;54688;52.376;16.744;2023-04-24T13:41:10;0;0;
67892;PMS7003;54688;52.376;16.744;2023-04-24T13:44:11;0;0;
67892;PMS7003;54688;52.376;16.744;2023-04-24T13:47:13;1;1;
67892;PMS7003;54688;52.376;16.744;2023-04-24T13:50:15;0;0;
67892;PMS7003;54688;52.376;16.744;2023-04-24T13:53:22;0;0;
67892;PMS7003;54688;52.376;16.744;2023-04-24T13:56:24;0;0;
67892;PMS7003;54688;52.376;16.744;2023-04-24T13:59:26;1;1;
67892;PMS7003;54688;52.376;16.744;2023-04-24T14:02:29;1;1;
67892;PMS7003;54688;52.376;16.744;2023-04-24T14:05:30;8;5;
67892;PMS7003;54688;52.376;16.744;2023-04-24T14:08:32;5;5;
67892;PMS7003;54688;52.376;16.744;2023-04-24T14:11:34;3;3;
67892;PMS7003;54688;52.376;16.744;2023-04-24T14:14:36;2;2;
67892;PMS7003;54688;52.376;16.744;2023-04-24T14:17:38;3;2;
67892;PMS7003;54688;52.376;16.744;2023-04-24T14:20:40;2;0;
67892;PMS7003;54688;52.376;16.744;2023-04-24T14:23:42;1;0;
67892;PMS7003;54688;52.376;16.744;2023-04-24T14:26:44;0;0;
67892;PMS7003;54688;52.376;16.744;2023-04-24T14:29:46;0;0;
67892;PMS7003;54688;52.376;16.744;2023-04-24T14:32:48;0;0;
67892;PMS7003;54688;52.376;16.744;2023-04-24T14:35:51;2;2;
67892;PMS7003;54688;52.376;16.744;2023-04-24T14:38:53;0;0;
67892;PMS7003;54688;52.376;16.744;2023-04-24T14:41:56;2;2;
67892;PMS7003;54688;52.376;16.744;2023-04-24T14:44:58;1;1;
67892;PMS7003;54688;52.376;16.744;2023-04-24T14:48:00;1;1;
67892;PMS7003;54688;52.376;16.744;2023-04-24T14:51:03;3;3;
67892;PMS7003;54688;52.376;16.744;2023-04-24T14:54:06;5;4;
67892;PMS7003;54688;52.376;16.744;2023-04-24T14:57:08;4;1;
67892;PMS7003;54688;52.376;16.744;2023-04-24T15:00:12;3;3;
67892;PMS7003;54688;52.376;16.744;2023-04-24T15:03:14;3;2;
67892;PMS7003;54688;52.376;16.744;2023-04-24T15:06:17;3;3;
67892;PMS7003;54688;52.376;16.744;2023-04-24T15:09:18;5;2;
67892;PMS7003;54688;52.376;16.744;2023-04-24T15:12:21;4;3;
67892;PMS7003;54688;52.376;16.744;2023-04-24T15:15:23;6;3;
67892;PMS7003;54688;52.376;16.744;2023-04-24T15:18:25;5;3;
67892;PMS7003;54688;52.376;16.744;2023-04-24T15:21:27;4;4;
67892;PMS7003;54688;52.376;16.744;2023-04-24T15:24:28;2;2;
67892;PMS7003;54688;52.376;16.744;2023-04-24T15:27:39;4;4;
67892;PMS7003;54688;52.376;16.744;2023-04-24T15:30:40;4;4;
67892;PMS7003;54688;52.376;16.744;2023-04-24T15:33:42;5;4;
67892;PMS7003;54688;52.376;16.744;2023-04-24T15:36:44;3;1;
67892;PMS7003;54688;52.376;16.744;2023-04-24T15:39:45;5;2;
67892;PMS7003;54688;52.376;16.744;2023-04-24T15:42:47;2;1;
67892;PMS7003;54688;52.376;16.744;2023-04-24T15:45:50;1;1;
67892;PMS7003;54688;52.376;16.744;2023-04-24T15:48:52;2;1;
67892;PMS7003;54688;52.376;16.744;2023-04-24T15:51:54;0;0;
67892;PMS7003;54688;52.376;16.744;2023-04-24T15:54:56;2;2;
67892;PMS7003;54688;52.376;16.744;2023-04-24T15:57:58;3;2;
67892;PMS7003;54688;52.376;16.744;2023-04-24T16:01:00;5;3;
67892;PMS7003;54688;52.376;16.744;2023-04-24T16:04:02;19;13;
67892;PMS7003;54688;52.376;16.744;2023-04-24T16:07:04;16;12;
67892;PMS7003;54688;52.376;16.744;2023-04-24T16:10:07;4;3;
67892;PMS7003;54688;52.376;16.744;2023-04-24T16:13:09;4;4;
67892;PMS7003;54688;52.376;16.744;2023-04-24T16:16:10;3;2;
67892;PMS7003;54688;52.376;16.744;2023-04-24T16:19:12;3;3;
67892;PMS7003;54688;52.376;16.744;2023-04-24T16:22:14;2;2;
67892;PMS7003;54688;52.376;16.744;2023-04-24T16:25:15;0;0;
67892;PMS7003;54688;52.376;16.744;2023-04-24T16:28:17;8;5;
67892;PMS7003;54688;52.376;16.744;2023-04-24T16:31:19;19;12;
67892;PMS7003;54688;52.376;16.744;2023-04-24T16:34:20;8;4;
67892;PMS7003;54688;52.376;16.744;2023-04-24T16:37:23;1;1;
67892;PMS7003;54688;52.376;16.744;2023-04-24T16:40:25;3;3;
67892;PMS7003;54688;52.376;16.744;2023-04-24T16:43:27;7;7;
67892;PMS7003;54688;52.376;16.744;2023-04-24T16:46:30;6;3;
67892;PMS7003;54688;52.376;16.744;2023-04-24T16:49:31;4;4;
67892;PMS7003;54688;52.376;16.744;2023-04-24T16:52:33;6;6;
67892;PMS7003;54688;52.376;16.744;2023-04-24T16:55:36;12;9;
67892;PMS7003;54688;52.376;16.744;2023-04-24T16:58:37;5;5;
67892;PMS7003;54688;52.376;16.744;2023-04-24T17:01:39;6;6;
67892;PMS7003;54688;52.376;16.744;2023-04-24T17:04:41;12;10;
67892;PMS7003;54688;52.376;16.744;2023-04-24T17:07:43;12;9;
67892;PMS7003;54688;52.376;16.744;2023-04-24T17:10:44;10;9;
67892;PMS7003;54688;52.376;16.744;2023-04-24T17:13:46;9;8;
67892;PMS7003;54688;52.376;16.744;2023-04-24T17:16:48;8;8;
67892;PMS7003;54688;52.376;16.744;2023-04-24T17:19:50;4;4;
67892;PMS7003;54688;52.376;16.744;2023-04-24T17:22:52;20;17;
67892;PMS7003;54688;52.376;16.744;2023-04-24T17:25:55;28;23;
67892;PMS7003;54688;52.376;16.744;2023-04-24T17:28:57;16;12;
67892;PMS7003;54688;52.376;16.744;2023-04-24T17:31:59;14;10;
67892;PMS7003;54688;52.376;16.744;2023-04-24T17:35:03;10;10;
67892;PMS7003;54688;52.376;16.744;2023-04-24T17:38:05;8;7;
67892;PMS7003;54688;52.376;16.744;2023-04-24T17:41:07;5;4;
67892;PMS7003;54688;52.376;16.744;2023-04-24T17:44:09;10;8;
67892;PMS7003;54688;52.376;16.744;2023-04-24T17:47:11;6;6;
67892;PMS7003;54688;52.376;16.744;2023-04-24T17:50:13;13;11;
67892;PMS7003;54688;52.376;16.744;2023-04-24T17:53:15;14;10;
67892;PMS7003;54688;52.376;16.744;2023-04-24T17:56:17;7;5;
67892;PMS7003;54688;52.376;16.744;2023-04-24T17:59:18;11;8;
67892;PMS7003;54688;52.376;16.744;2023-04-24T18:02:20;4;4;
67892;PMS7003;54688;52.376;16.744;2023-04-24T18:05:22;8;6;
67892;PMS7003;54688;52.376;16.744;2023-04-24T18:08:25;9;8;
67892;PMS7003;54688;52.376;16.744;2023-04-24T18:11:27;9;8;
67892;PMS7003;54688;52.376;16.744;2023-04-24T18:14:29;8;7;
67892;PMS7003;54688;52.376;16.744;2023-04-24T18:17:31;14;12;
67892;PMS7003;54688;52.376;16.744;2023-04-24T18:20:33;20;16;
67892;PMS7003;54688;52.376;16.744;2023-04-24T18:23:36;14;12;
67892;PMS7003;54688;52.376;16.744;2023-04-24T18:29:38;13;13;
67892;PMS7003;54688;52.376;16.744;2023-04-24T18:32:39;22;20;
67892;PMS7003;54688;52.376;16.744;2023-04-24T18:35:42;22;21;
67892;PMS7003;54688;52.376;16.744;2023-04-24T18:38:43;27;25;
67892;PMS7003;54688;52.376;16.744;2023-04-24T18:41:45;38;31;
67892;PMS7003;54688;52.376;16.744;2023-04-24T18:44:47;44;33;
67892;PMS7003;54688;52.376;16.744;2023-04-24T18:47:49;29;22;
67892;PMS7003;54688;52.376;16.744;2023-04-24T18:50:51;24;20;
67892;PMS7003;54688;52.376;16.744;2023-04-24T18:53:53;13;10;
67892;PMS7003;54688;52.376;16.744;2023-04-24T18:56:56;13;13;
67892;PMS7003;54688;52.376;16.744;2023-04-24T18:59:58;21;16;
67892;PMS7003;54688;52.376;16.744;2023-04-24T19:03:00;15;11;
67892;PMS7003;54688;52.376;16.744;2023-04-24T19:06:02;16;12;
67892;PMS7003;54688;52.376;16.744;2023-04-24T19:09:04;15;13;
67892;PMS7003;54688;52.376;16.744;2023-04-24T19:12:06;17;17;
67892;PMS7003;54688;52.376;16.744;2023-04-24T19:15:08;27;20;
67892;PMS7003;54688;52.376;16.744;2023-04-24T19:18:10;21;18;
67892;PMS7003;54688;52.376;16.744;2023-04-24T19:21:12;25;24;
67892;PMS7003;54688;52.376;16.744;2023-04-24T19:24:14;29;23;
67892;PMS7003;54688;52.376;16.744;2023-04-24T19:27:17;26;22;
67892;PMS7003;54688;52.376;16.744;2023-04-24T19:33:18;25;23;
67892;PMS7003;54688;52.376;16.744;2023-04-24T19:36:20;27;22;
67892;PMS7003;54688;52.376;16.744;2023-04-24T19:39:22;22;18;
67892;PMS7003;54688;52.376;16.744;2023-04-24T19:42:25;36;30;
67892;PMS7003;54688;52.376;16.744;2023-04-24T19:45:27;34;29;
67892;PMS7003;54688;52.376;16.744;2023-04-24T19:48:29;35;25;
67892;PMS7003;54688;52.376;16.744;2023-04-24T19:51:31;18;18;
67892;PMS7003;54688;52.376;16.744;2023-04-24T19:54:33;30;23;
67892;PMS7003;54688;52.376;16.744;2023-04-24T19:57:35;37;26;
67892;PMS7003;54688;52.376;16.744;2023-04-24T20:00:37;46;34;
67892;PMS7003;54688;52.376;16.744;2023-04-24T20:03:39;35;32;
67892;PMS7003;54688;52.376;16.744;2023-04-24T20:06:41;34;22;
67892;PMS7003;54688;52.376;16.744;2023-04-24T20:09:43;26;23;
67892;PMS7003;54688;52.376;16.744;2023-04-24T20:12:45;22;16;
67892;PMS7003;54688;52.376;16.744;2023-04-24T20:15:46;15;12;